createdAt,value
2018-09-14T00:00:06.430Z,25.60
2018-09-14T00:02:34.889Z,26.10
2018-09-14T00:05:04.760Z,25.53
2018-09-14T00:07:33.193Z,26.30
2018-09-14T00:10:01.844Z,24.50
2018-09-14T00:12:30.378Z,26.50
2018-09-14T00:14:58.812Z,27.03
2018-09-14T00:17:27.333Z,27.40
2018-09-14T00:20:58.743Z,27.67
2018-09-14T00:23:27.177Z,27.10
2018-09-14T00:25:55.658Z,28.40
2018-09-14T00:28:24.356Z,29.30
2018-09-14T00:30:52.801Z,29.70
2018-09-14T00:33:21.309Z,28.87
2018-09-14T00:35:49.767Z,28.07
2018-09-14T00:38:19.196Z,29.73
2018-09-14T00:40:47.660Z,27.50
2018-09-14T00:43:16.264Z,28.53
2018-09-14T00:45:44.717Z,29.07
2018-09-14T00:48:13.256Z,29.50
2018-09-14T00:50:41.692Z,30.80
2018-09-14T00:53:10.165Z,31.03
2018-09-14T00:55:38.687Z,29.10
2018-09-14T00:58:07.153Z,29.67
2018-09-14T01:00:35.621Z,29.10
2018-09-14T01:03:04.098Z,27.33
2018-09-14T01:06:36.056Z,27.97
2018-09-14T01:09:07.772Z,28.30
2018-09-14T01:11:36.306Z,29.40
2018-09-14T01:14:04.798Z,27.97
2018-09-14T01:16:33.311Z,28.57
2018-09-14T01:19:01.761Z,29.77
2018-09-14T01:21:30.269Z,28.27
2018-09-14T01:23:58.717Z,27.60
2018-09-14T01:26:27.233Z,29.00
2018-09-14T01:28:55.676Z,27.77
2018-09-14T01:31:25.232Z,30.30
2018-09-14T01:33:53.664Z,26.43
2018-09-14T01:36:22.181Z,28.20
2018-09-14T01:38:50.644Z,29.07
2018-09-14T01:41:19.120Z,28.47
2018-09-14T01:43:47.593Z,28.03
2018-09-14T01:46:16.088Z,28.20
2018-09-14T01:48:44.566Z,28.17
2018-09-14T01:51:13.321Z,26.23
2018-09-14T01:53:41.869Z,26.80
2018-09-14T01:56:10.328Z,27.43
2018-09-14T01:58:38.784Z,28.80
2018-09-14T02:01:07.612Z,28.20
2018-09-14T02:03:36.084Z,27.43
2018-09-14T02:06:04.532Z,28.90
2018-09-14T02:08:33.025Z,28.70
2018-09-14T02:11:01.500Z,28.50
2018-09-14T02:13:30.000Z,29.67
2018-09-14T02:15:58.476Z,30.57
2018-09-14T02:18:26.959Z,28.70
2018-09-14T02:21:58.608Z,32.03
2018-09-14T02:24:27.137Z,31.97
2018-09-14T02:26:55.572Z,30.40
2018-09-14T02:29:24.993Z,31.17
2018-09-14T02:31:53.444Z,32.07
2018-09-14T02:34:21.949Z,31.13
2018-09-14T02:36:50.465Z,31.97
2018-09-14T02:39:18.921Z,31.17
2018-09-14T02:41:47.570Z,32.30
2018-09-14T02:44:16.082Z,33.33
2018-09-14T02:46:44.569Z,31.13
2018-09-14T02:49:13.128Z,31.97
2018-09-14T02:51:41.644Z,32.37
2018-09-14T02:54:10.562Z,33.60
2018-09-14T02:56:39.037Z,34.53
2018-09-14T02:59:07.473Z,31.90
2018-09-14T03:01:35.974Z,32.23
2018-09-14T03:04:04.480Z,30.30
2018-09-14T03:06:32.937Z,31.50
2018-09-14T03:09:01.462Z,33.73
2018-09-14T03:11:30.121Z,31.97
2018-09-14T03:13:59.403Z,32.40
2018-09-14T03:16:28.874Z,32.07
2018-09-14T03:18:57.459Z,33.43
2018-09-14T03:21:25.969Z,31.83
2018-09-14T03:23:54.446Z,33.73
2018-09-14T03:26:22.961Z,31.10
2018-09-14T03:28:51.438Z,31.37
2018-09-14T03:31:19.961Z,32.17
2018-09-14T03:33:48.476Z,31.47
2018-09-14T03:36:16.953Z,30.90
2018-09-14T03:38:45.448Z,30.33
2018-09-14T03:41:13.993Z,29.50
2018-09-14T03:43:42.513Z,31.93
2018-09-14T03:46:10.976Z,33.30
2018-09-14T03:48:39.481Z,33.90
2018-09-14T03:51:08.064Z,33.67
2018-09-14T03:53:36.672Z,31.90
2018-09-14T03:56:05.126Z,31.73
2018-09-14T03:58:33.618Z,33.53
2018-09-14T04:01:02.245Z,33.40
2018-09-14T04:03:30.697Z,32.43
2018-09-14T04:05:59.154Z,34.73
2018-09-14T04:08:27.608Z,33.63
2018-09-14T04:10:56.144Z,30.80
2018-09-14T04:13:24.642Z,31.03
2018-09-14T04:15:53.112Z,31.17
2018-09-14T04:18:21.567Z,31.70
2018-09-14T04:20:50.073Z,30.73
2018-09-14T04:23:18.570Z,30.77
2018-09-14T04:25:47.011Z,29.80
2018-09-14T04:28:15.560Z,30.00
2018-09-14T04:30:44.085Z,28.97
2018-09-14T04:33:12.680Z,29.47
2018-09-14T04:35:41.131Z,30.20
2018-09-14T04:38:09.695Z,28.80
2018-09-14T04:40:38.092Z,30.00
2018-09-14T04:43:06.592Z,31.07
2018-09-14T04:45:35.066Z,30.53
2018-09-14T04:48:03.961Z,31.37
2018-09-14T04:50:32.427Z,29.07
2018-09-14T04:53:00.938Z,29.03
2018-09-14T04:55:29.409Z,30.13
2018-09-14T04:57:57.962Z,29.87
2018-09-14T05:00:26.477Z,29.83
2018-09-14T05:02:55.045Z,32.17
2018-09-14T05:05:23.540Z,31.63
2018-09-14T05:07:52.013Z,30.97
2018-09-14T05:10:20.521Z,30.50
2018-09-14T05:12:48.968Z,33.30
2018-09-14T05:15:18.394Z,35.33
2018-09-14T05:17:46.873Z,35.17
2018-09-14T05:20:15.351Z,33.37
2018-09-14T05:22:43.805Z,33.27
2018-09-14T05:25:12.359Z,32.40
2018-09-14T05:27:40.788Z,33.60
2018-09-14T05:30:09.278Z,35.17
2018-09-14T05:32:37.740Z,35.40
2018-09-14T05:35:06.272Z,34.70
2018-09-14T05:37:34.712Z,32.40
2018-09-14T05:40:03.240Z,28.60
2018-09-14T05:42:31.685Z,29.40
2018-09-14T05:45:00.260Z,30.13
2018-09-14T05:47:28.743Z,30.07
2018-09-14T05:49:57.305Z,28.67
2018-09-14T05:52:25.823Z,28.33
2018-09-14T05:54:54.299Z,29.27
2018-09-14T05:57:22.761Z,27.97
2018-09-14T05:59:51.236Z,27.83
2018-09-14T06:02:19.768Z,26.13
2018-09-14T06:04:48.213Z,26.63
2018-09-14T06:07:16.719Z,26.50
2018-09-14T06:09:45.217Z,25.23
2018-09-14T06:12:13.654Z,26.30
2018-09-14T06:14:43.230Z,25.20
2018-09-14T06:17:11.685Z,26.07
2018-09-14T06:19:40.144Z,26.40
2018-09-14T06:22:08.656Z,26.77
2018-09-14T06:24:37.115Z,26.60
2018-09-14T06:27:05.774Z,27.03
2018-09-14T06:29:34.298Z,25.40
2018-09-14T06:32:02.749Z,26.17
2018-09-14T06:34:31.254Z,24.83
2018-09-14T06:36:59.736Z,25.67
2018-09-14T06:39:28.402Z,25.43
2018-09-14T06:41:56.876Z,28.00
2018-09-14T06:44:25.340Z,25.23
2018-09-14T06:46:53.853Z,26.07
2018-09-14T06:49:22.367Z,26.50
2018-09-14T06:51:50.813Z,25.07
2018-09-14T06:54:19.337Z,27.00
2018-09-14T06:56:47.791Z,27.60
2018-09-14T06:59:16.257Z,27.43
2018-09-14T07:01:44.737Z,25.10
2018-09-14T07:04:13.205Z,27.43
2018-09-14T07:07:45.376Z,26.67
2018-09-14T07:10:13.852Z,26.30
2018-09-14T07:12:42.403Z,26.40
2018-09-14T07:15:10.907Z,26.03
2018-09-14T07:17:39.512Z,26.03
2018-09-14T07:20:08.053Z,26.47
2018-09-14T07:22:36.596Z,30.70
2018-09-14T07:25:05.152Z,25.87
2018-09-14T07:27:33.719Z,25.83
2018-09-14T07:30:02.276Z,26.20
2018-09-14T07:32:30.708Z,26.63
2018-09-14T07:34:59.220Z,25.03
2018-09-14T07:37:27.673Z,26.07
2018-09-14T07:39:56.176Z,24.83
2018-09-14T07:42:24.678Z,26.43
2018-09-14T07:44:53.146Z,29.53
2018-09-14T07:47:21.602Z,25.33
2018-09-14T07:49:50.111Z,25.80
2018-09-14T07:52:18.562Z,25.00
2018-09-14T07:54:48.100Z,24.53
2018-09-14T07:57:16.883Z,23.23
2018-09-14T07:59:45.417Z,23.37
2018-09-14T08:02:13.941Z,22.90
2018-09-14T08:04:42.410Z,23.37
2018-09-14T08:07:11.009Z,23.90
2018-09-14T08:09:39.465Z,24.03
2018-09-14T08:12:08.060Z,23.37
2018-09-14T08:14:36.520Z,24.20
2018-09-14T08:17:05.077Z,23.13
2018-09-14T08:19:33.528Z,23.20
2018-09-14T08:22:02.053Z,22.97
2018-09-14T08:24:30.453Z,25.03
2018-09-14T08:26:59.012Z,24.50
2018-09-14T08:29:27.488Z,25.17
2018-09-14T08:31:55.917Z,24.63
2018-09-14T08:34:24.411Z,25.60
2018-09-14T08:36:52.881Z,24.50
2018-09-14T08:39:21.380Z,26.03
2018-09-14T08:42:53.244Z,28.20
2018-09-14T08:45:21.758Z,28.40
2018-09-14T08:47:50.403Z,26.43
2018-09-14T08:50:18.908Z,28.37
2018-09-14T08:52:47.407Z,29.70
2018-09-14T08:55:15.877Z,27.80
2018-09-14T08:57:44.336Z,30.83
2018-09-14T09:00:12.923Z,29.57
2018-09-14T09:02:41.378Z,29.97
2018-09-14T09:05:10.795Z,30.67
2018-09-14T09:07:40.336Z,31.93
2018-09-14T09:10:08.810Z,29.50
2018-09-14T09:12:37.300Z,30.20
2018-09-14T09:15:05.980Z,31.57
2018-09-14T09:17:34.520Z,28.80
2018-09-14T09:20:03.085Z,31.53
2018-09-14T09:22:31.621Z,44.80
2018-09-14T09:25:00.291Z,29.47
2018-09-14T09:27:28.804Z,34.70
2018-09-14T09:29:57.384Z,33.23
2018-09-14T09:32:25.849Z,32.90
2018-09-14T09:34:54.318Z,35.67
2018-09-14T09:37:22.872Z,33.73
2018-09-14T09:39:51.389Z,33.67
2018-09-14T09:42:19.862Z,34.50
2018-09-14T09:44:48.352Z,33.27
2018-09-14T09:47:16.841Z,34.47
2018-09-14T09:49:45.322Z,34.40
2018-09-14T09:52:13.834Z,36.17
2018-09-14T09:54:42.286Z,34.17
2018-09-14T09:57:10.780Z,33.00
2018-09-14T09:59:39.253Z,35.30
2018-09-14T10:02:13.234Z,32.97
2018-09-14T10:04:47.022Z,34.67
2018-09-14T10:07:15.531Z,34.97
2018-09-14T10:09:44.065Z,34.10
2018-09-14T10:12:12.544Z,36.13
2018-09-14T10:14:40.979Z,32.53
2018-09-14T10:17:09.540Z,33.00
2018-09-14T10:19:38.452Z,33.77
2018-09-14T10:22:06.972Z,33.80
2018-09-14T10:24:35.469Z,30.70
2018-09-14T10:27:03.936Z,26.97
2018-09-14T10:29:32.431Z,27.40
2018-09-14T10:32:00.872Z,25.80
2018-09-14T10:34:29.377Z,27.93
2018-09-14T10:36:57.850Z,26.70
2018-09-14T10:39:26.383Z,29.40
2018-09-14T10:41:54.905Z,25.77
2018-09-14T10:44:23.398Z,18.53
2018-09-14T10:46:51.868Z,18.57
2018-09-14T10:49:20.351Z,20.90
2018-09-14T10:51:49.008Z,20.50
2018-09-14T10:54:17.508Z,19.60
2018-09-14T10:56:45.988Z,18.53
2018-09-14T10:59:14.517Z,21.30
2018-09-14T11:01:42.955Z,19.50
2018-09-14T11:04:11.420Z,18.63
2018-09-14T11:06:39.931Z,17.70
2018-09-14T11:09:10.706Z,17.27
2018-09-14T11:11:39.160Z,16.90
2018-09-14T11:14:07.649Z,39.10
2018-09-14T11:16:36.317Z,19.10
2018-09-14T11:19:04.840Z,18.73
2018-09-14T11:21:33.696Z,17.53
2018-09-14T11:24:02.564Z,19.67
2018-09-14T11:26:31.162Z,18.97
2018-09-14T11:28:59.629Z,17.13
2018-09-14T11:31:28.851Z,15.30
2018-09-14T11:33:58.144Z,16.83
2018-09-14T11:36:27.230Z,17.03
2018-09-14T11:38:55.724Z,16.07
2018-09-14T11:41:24.193Z,15.00
2018-09-14T11:43:52.776Z,14.37
2018-09-14T11:46:21.368Z,14.77
2018-09-14T11:48:50.797Z,14.90
2018-09-14T11:51:19.254Z,12.53
2018-09-14T11:53:47.744Z,13.40
2018-09-14T11:56:16.210Z,12.50
2018-09-14T11:58:44.716Z,12.50
2018-09-14T12:01:13.227Z,12.70
2018-09-14T12:03:41.665Z,10.87
2018-09-14T12:06:10.897Z,12.23
2018-09-14T12:08:39.454Z,10.80
2018-09-14T12:11:08.467Z,10.13
2018-09-14T12:13:37.799Z,9.40
2018-09-14T12:16:06.386Z,11.90
2018-09-14T12:18:35.263Z,9.40
2018-09-14T12:21:04.120Z,9.90
2018-09-14T12:23:32.857Z,9.60
2018-09-14T12:26:01.773Z,10.03
2018-09-14T12:28:30.766Z,10.03
2018-09-14T12:30:59.485Z,7.20
2018-09-14T12:33:28.290Z,8.53
2018-09-14T12:35:57.135Z,7.77
2018-09-14T12:38:25.678Z,7.90
2018-09-14T12:40:54.098Z,8.77
2018-09-14T12:43:22.608Z,8.13
2018-09-14T12:45:51.061Z,8.90
2018-09-14T12:48:19.932Z,9.40
2018-09-14T12:50:48.725Z,7.33
2018-09-14T12:53:18.264Z,10.57
2018-09-14T12:55:46.717Z,7.00
2018-09-14T12:58:15.261Z,6.63
2018-09-14T13:00:43.676Z,7.37
2018-09-14T13:03:12.504Z,7.00
2018-09-14T13:05:40.977Z,6.23
2018-09-14T13:08:09.472Z,20.73
2018-09-14T13:10:38.006Z,11.50
2018-09-14T13:13:06.525Z,7.30
2018-09-14T13:15:35.066Z,29.83
2018-09-14T13:18:03.659Z,6.07
2018-09-14T13:20:33.293Z,7.10
2018-09-14T13:23:01.783Z,7.20
2018-09-14T13:25:30.434Z,6.77
2018-09-14T13:27:59.852Z,6.10
2018-09-14T13:30:28.488Z,5.90
2018-09-14T13:32:57.030Z,5.60
2018-09-14T13:35:25.553Z,7.13
2018-09-14T13:37:54.543Z,6.70
2018-09-14T13:40:23.236Z,6.33
2018-09-14T13:42:52.105Z,6.53
2018-09-14T13:45:20.726Z,7.80
2018-09-14T13:47:49.276Z,7.73
2018-09-14T13:50:17.806Z,6.67
2018-09-14T13:52:47.278Z,7.83
2018-09-14T13:55:15.837Z,9.53
2018-09-14T13:57:44.348Z,7.43
2018-09-14T14:00:12.880Z,7.47
2018-09-14T14:02:43.027Z,6.03
2018-09-14T14:05:12.805Z,6.23
2018-09-14T14:07:41.405Z,7.53
2018-09-14T14:10:09.973Z,6.40
2018-09-14T14:12:38.398Z,7.30
2018-09-14T14:15:06.970Z,6.37
2018-09-14T14:17:35.848Z,5.97
2018-09-14T14:20:04.347Z,7.07
2018-09-14T14:22:32.945Z,6.67
2018-09-14T14:25:01.432Z,5.97
2018-09-14T14:27:30.123Z,6.20
2018-09-14T14:29:59.143Z,6.20
2018-09-14T14:32:27.994Z,5.47
2018-09-14T14:34:57.258Z,6.60
2018-09-14T14:37:26.646Z,6.17
2018-09-14T14:39:55.444Z,4.47
2018-09-14T14:42:24.523Z,6.13
2018-09-14T14:44:53.365Z,5.53
2018-09-14T14:47:22.053Z,5.73
2018-09-14T14:49:51.725Z,5.77
2018-09-14T14:52:24.569Z,4.87
2018-09-14T14:54:53.868Z,6.37
2018-09-14T14:57:23.174Z,4.90
2018-09-14T14:59:53.035Z,4.80
2018-09-14T15:02:22.748Z,6.23
2018-09-14T15:04:52.624Z,4.70
2018-09-14T15:07:22.176Z,5.40
2018-09-14T15:09:51.771Z,4.60
2018-09-14T15:12:21.237Z,6.07
2018-09-14T15:14:50.621Z,5.70
2018-09-14T15:17:19.204Z,5.33
2018-09-14T15:19:47.657Z,4.67
2018-09-14T15:22:17.220Z,4.00
2018-09-14T15:24:48.752Z,4.47
2018-09-14T15:27:17.999Z,3.97
2018-09-14T15:29:46.850Z,3.90
2018-09-14T15:32:15.721Z,3.60
2018-09-14T15:34:44.209Z,4.80
2018-09-14T15:37:12.997Z,3.40
2018-09-14T15:39:41.692Z,4.03
2018-09-14T15:42:10.185Z,3.80
2018-09-14T15:44:38.748Z,3.90
2018-09-14T15:47:07.749Z,4.20
2018-09-14T15:49:36.378Z,4.00
2018-09-14T15:52:04.996Z,3.47
2018-09-14T15:54:33.479Z,3.10
2018-09-14T15:57:02.384Z,3.70
2018-09-14T15:59:31.074Z,4.40
2018-09-14T16:01:59.756Z,2.80
2018-09-14T16:04:28.451Z,2.90
2018-09-14T16:06:56.896Z,2.80
2018-09-14T16:09:26.531Z,4.37
2018-09-14T16:11:55.175Z,3.40
2018-09-14T16:14:23.697Z,3.97
2018-09-14T16:16:52.330Z,3.17
2018-09-14T16:19:20.890Z,4.80
2018-09-14T16:21:49.632Z,4.30
2018-09-14T16:24:18.372Z,4.57
2018-09-14T16:26:46.857Z,3.27
2018-09-14T16:29:15.308Z,3.70
2018-09-14T16:31:44.192Z,3.83
2018-09-14T16:34:12.709Z,3.90
2018-09-14T16:36:41.133Z,3.73
2018-09-14T16:39:11.168Z,3.50
2018-09-14T16:41:40.516Z,3.23
2018-09-14T16:44:10.298Z,3.80
2018-09-14T16:46:39.269Z,3.40
2018-09-14T16:49:08.568Z,3.60
2018-09-14T16:51:37.246Z,3.43
2018-09-14T16:54:05.757Z,2.70
2018-09-14T16:56:35.136Z,3.57
2018-09-14T16:59:03.697Z,3.60
2018-09-14T17:01:32.424Z,4.70
2018-09-14T17:04:00.885Z,3.40
2018-09-14T17:06:29.506Z,3.40
2018-09-14T17:08:58.073Z,3.27
2018-09-14T17:11:26.557Z,3.53
2018-09-14T17:13:55.134Z,3.23
2018-09-14T17:16:23.585Z,2.33
2018-09-14T17:18:52.127Z,2.73
2018-09-14T17:21:20.703Z,2.93
2018-09-14T17:23:49.164Z,2.70
2018-09-14T17:26:17.685Z,3.07
2018-09-14T17:28:46.512Z,2.60
2018-09-14T17:31:15.128Z,2.77
2018-09-14T17:33:43.579Z,2.57
2018-09-14T17:36:12.097Z,2.70
2018-09-14T17:38:40.585Z,2.53
2018-09-14T17:41:09.180Z,2.83
2018-09-14T17:50:41.888Z,2.47
2018-09-14T17:53:10.387Z,2.50
2018-09-14T17:55:38.820Z,2.70
2018-09-14T17:58:08.345Z,2.77
2018-09-14T18:00:36.812Z,2.97
2018-09-14T18:03:05.367Z,2.57
2018-09-14T18:05:33.885Z,2.90
2018-09-14T18:08:02.394Z,3.07
2018-09-14T18:10:30.879Z,2.30
2018-09-14T18:12:59.330Z,2.43
2018-09-14T18:15:27.808Z,4.10
2018-09-14T18:17:56.295Z,2.43
2018-09-14T18:20:24.775Z,27.73
2018-09-14T18:22:53.281Z,2.80
2018-09-14T18:25:21.773Z,3.07
2018-09-14T18:27:50.360Z,2.60
2018-09-14T18:30:18.732Z,3.00
2018-09-14T18:32:47.183Z,2.80
2018-09-14T18:35:15.697Z,2.80
2018-09-14T18:37:44.135Z,2.73
2018-09-14T18:40:12.666Z,2.60
2018-09-14T18:42:41.107Z,2.90
2018-09-14T18:45:09.714Z,2.70
2018-09-14T18:47:38.281Z,3.00
2018-09-14T18:50:07.174Z,2.60
2018-09-14T18:52:35.697Z,3.33
2018-09-14T18:55:04.165Z,3.00
2018-09-14T18:57:32.641Z,2.87
2018-09-14T19:00:01.374Z,3.30
2018-09-14T19:02:29.932Z,2.73
2018-09-14T19:04:58.583Z,2.40
2018-09-14T19:07:27.256Z,3.03
2018-09-14T19:09:55.745Z,2.77
2018-09-14T19:12:24.254Z,3.70
2018-09-14T19:14:52.709Z,3.70
2018-09-14T19:17:21.173Z,3.50
2018-09-14T19:19:49.690Z,3.67
2018-09-14T19:22:18.145Z,3.37
2018-09-14T19:24:46.737Z,4.37
2018-09-14T19:27:15.217Z,3.60
2018-09-14T19:29:43.708Z,4.20
2018-09-14T19:32:12.358Z,4.63
2018-09-14T19:34:40.885Z,5.10
2018-09-14T19:37:09.389Z,6.53
2018-09-14T19:39:37.901Z,4.90
2018-09-14T19:42:06.434Z,5.23
2018-09-14T19:44:34.971Z,4.30
2018-09-14T19:47:03.426Z,4.30
2018-09-14T19:49:31.869Z,4.67
2018-09-14T19:52:00.361Z,4.00
2018-09-14T19:54:28.837Z,5.23
2018-09-14T19:56:57.345Z,4.57
2018-09-14T19:59:25.801Z,5.37
2018-09-14T20:01:54.266Z,4.33
2018-09-14T20:04:22.879Z,4.40
2018-09-14T20:06:51.406Z,5.27
2018-09-14T20:09:19.928Z,5.37
2018-09-14T20:11:48.413Z,4.77
2018-09-14T20:14:16.886Z,5.70
2018-09-14T20:16:45.362Z,5.13
2018-09-14T20:19:13.861Z,3.97
2018-09-14T20:21:42.317Z,4.90
2018-09-14T20:24:10.776Z,3.90
2018-09-14T20:26:39.928Z,3.70
2018-09-14T20:29:08.392Z,3.67
2018-09-14T20:31:37.806Z,3.40
2018-09-14T20:34:06.345Z,4.13
2018-09-14T20:36:34.877Z,4.03
2018-09-14T20:39:03.468Z,3.67
2018-09-14T20:41:31.972Z,3.43
2018-09-14T20:44:00.481Z,3.70
2018-09-14T20:46:29.058Z,3.23
2018-09-14T20:48:57.560Z,3.53
2018-09-14T20:51:26.035Z,4.60
2018-09-14T20:53:54.528Z,4.00
2018-09-14T20:56:23.054Z,4.67
2018-09-14T20:58:51.486Z,3.70
2018-09-14T21:01:19.957Z,4.00
2018-09-14T21:03:48.489Z,4.23
2018-09-14T21:06:16.949Z,4.67
2018-09-14T21:08:45.432Z,4.47
2018-09-14T21:11:13.897Z,3.80
2018-09-14T21:13:42.391Z,4.13
2018-09-14T21:16:10.849Z,4.90
2018-09-14T21:18:39.392Z,4.30
2018-09-14T21:21:07.874Z,4.77
2018-09-14T21:23:36.359Z,4.70
2018-09-14T21:26:04.787Z,4.47
2018-09-14T21:28:34.289Z,4.70
2018-09-14T21:31:02.821Z,4.73
2018-09-14T21:33:31.241Z,4.77
2018-09-14T21:35:59.756Z,4.10
2018-09-14T21:38:28.258Z,4.03
2018-09-14T21:40:56.740Z,3.80
2018-09-14T21:43:25.252Z,3.90
2018-09-14T21:45:53.777Z,4.20
2018-09-14T21:48:22.373Z,4.33
2018-09-14T21:50:51.876Z,5.00
2018-09-14T21:53:20.320Z,4.30
2018-09-14T21:55:48.877Z,4.53
2018-09-14T21:58:17.313Z,4.33
2018-09-14T22:00:51.148Z,4.33
2018-09-14T22:03:19.705Z,4.90
2018-09-14T22:05:48.236Z,5.43
2018-09-14T22:08:16.665Z,4.50
2018-09-14T22:10:45.219Z,4.97
2018-09-14T22:13:13.812Z,4.43
2018-09-14T22:15:42.358Z,4.73
2018-09-14T22:18:10.805Z,4.50
2018-09-14T22:20:39.277Z,4.87
2018-09-14T22:23:07.839Z,4.40
2018-09-14T22:25:36.417Z,11.93
2018-09-14T22:28:05.020Z,4.30
2018-09-14T22:30:33.513Z,3.90
2018-09-14T22:33:02.025Z,3.57
2018-09-14T22:35:30.513Z,3.60
2018-09-14T22:37:59.036Z,3.93
2018-09-14T22:40:27.554Z,4.17
2018-09-14T22:42:56.034Z,3.90
2018-09-14T22:45:24.494Z,4.37
2018-09-14T22:47:52.997Z,3.63
2018-09-14T22:50:21.504Z,3.80
2018-09-14T22:52:49.980Z,3.47
2018-09-14T22:55:18.745Z,3.63
2018-09-14T22:57:47.325Z,3.80
2018-09-14T23:00:21.313Z,3.70
2018-09-14T23:02:49.795Z,3.60
2018-09-14T23:05:18.325Z,2.90
2018-09-14T23:07:46.783Z,2.80
2018-09-14T23:10:15.297Z,3.20
2018-09-14T23:12:43.749Z,3.72
2018-09-14T23:15:12.221Z,10.70
2018-09-14T23:17:40.706Z,3.47
2018-09-14T23:20:09.191Z,2.80
2018-09-14T23:22:38.398Z,3.07
2018-09-14T23:25:06.902Z,3.10
2018-09-14T23:27:35.480Z,3.00
2018-09-14T23:30:03.967Z,3.10
2018-09-14T23:32:32.436Z,3.40
2018-09-14T23:35:01.136Z,3.53
2018-09-14T23:37:29.612Z,2.87
2018-09-14T23:39:58.072Z,3.07
2018-09-14T23:42:26.535Z,3.00
2018-09-14T23:44:55.057Z,4.00
2018-09-14T23:47:23.501Z,2.93
2018-09-14T23:49:51.981Z,3.10
2018-09-14T23:52:20.476Z,3.10
2018-09-14T23:54:48.952Z,3.10
2018-09-14T23:57:17.578Z,2.90
2018-09-14T23:59:46.038Z,3.00
